This is the latest recevied weather packets stored in our database for station/object KC2WGU. If no packets are shown the sender has not sent any weather packets the latest 10 day(s).
| Time | Temp. | Humidity | Pressure | Rain* | Wind** | Luminosity | Snow |
|---|---|---|---|---|---|---|---|
| 1778020822 | 17.22° C | 79% | 1004.1 hPa | 0 mm | - | 94 W/m² | - |
| 1778020222 | 17.78° C | 80% | 1004.2 hPa | 0 mm | - | 105 W/m² | - |
| 1778019622 | 17.22° C | 81% | 1004.2 hPa | 0.25 mm | - | 153 W/m² | - |
| 1778019023 | 16.67° C | 82% | 1004.3 hPa | 0.25 mm | - | 145 W/m² | - |
| 1778018422 | 16.67° C | 82% | 1004.4 hPa | 0.25 mm | - | 87 W/m² | - |
| 1778017822 | 16.67° C | 82% | 1004.4 hPa | 0.25 mm | - | 70 W/m² | - |
| 1778017223 | 16.67° C | 82% | 1004.4 hPa | 0.76 mm | - | 59 W/m² | - |
| 1778016623 | 16.67° C | 82% | 1004.5 hPa | 1.02 mm | - | 135 W/m² | - |
| 1778016023 | 16.67° C | 82% | 1004.8 hPa | 0.76 mm | - | 55 W/m² | - |
| 1778015422 | 16.67° C | 83% | 1004.4 hPa | 0.76 mm | - | 85 W/m² | - |
| 1778014841 | 16.67° C | 84% | 1004.4 hPa | 0.76 mm | - | 99 W/m² | - |
| 1778014222 | 16.11° C | 84% | 1004.2 hPa | 0.76 mm | - | 167 W/m² | - |
| 1778013623 | 16.67° C | 82% | 1003.6 hPa | 0.25 mm | - | 75 W/m² | - |
| 1778013023 | 16.67° C | 80% | 1003.6 hPa | 0 mm | - | 233 W/m² | - |
| 1778012423 | 18.33° C | 73% | 1003.7 hPa | 0.25 mm | - | 55 W/m² | - |
| 1778011822 | 21.11° C | 64% | 1003.1 hPa | 0.25 mm | - | 41 W/m² | - |
| 1778011224 | 21.67° C | 63% | 1002.3 hPa | 0.51 mm | - | 68 W/m² | - |
| 1778010623 | 21.67° C | 65% | 1002.3 hPa | 1.02 mm | - | 224 W/m² | - |
| 1778010022 | 21.67° C | 66% | 1002.5 hPa | 1.27 mm | - | 672 W/m² | - |
| 1778009424 | 21.11° C | 67% | 1002.4 hPa | 1.27 mm | - | 558 W/m² | - |
| 1778008824 | 20° C | 74% | 1002.6 hPa | 1.02 mm | - | 714 W/m² | - |
| 1778007620 | 18.33° C | 72% | 1003.5 hPa | 1.52 mm | - | 0 W/m² | - |
| 1778007020 | 18.33° C | 71% | 1003.3 hPa | 1.27 mm | - | 0 W/m² | - |
| 1778006420 | 20.56° C | 63% | 1003 hPa | 0.51 mm | - | 0 W/m² | - |
| 1778005820 | 20° C | 65% | 1002.6 hPa | 0.51 mm | - | 0 W/m² | - |
* Rain latest hour (hover to see other rain measurements)
** Current wind speed in m/s (hover to see current wind gust speed)